createdAt,value
2019-02-24T00:01:10.905Z,91.68
2019-02-24T00:03:44.546Z,91.86
2019-02-24T00:06:16.475Z,92.11
2019-02-24T00:08:47.791Z,92.20
2019-02-24T00:11:21.327Z,91.75
2019-02-24T00:13:55.129Z,91.42
2019-02-24T00:16:29.038Z,91.86
2019-02-24T00:19:03.823Z,91.85
2019-02-24T00:21:35.373Z,91.79
2019-02-24T00:24:07.688Z,91.82
2019-02-24T00:26:38.966Z,91.96
2019-02-24T00:29:12.640Z,92.08
2019-02-24T00:31:46.448Z,92.13
2019-02-24T00:34:19.339Z,92.45
2019-02-24T00:36:52.232Z,93.31
2019-02-24T00:39:27.003Z,93.67
2019-02-24T00:42:00.482Z,93.62
2019-02-24T00:44:33.019Z,93.57
2019-02-24T00:47:07.029Z,93.49
2019-02-24T00:49:38.698Z,93.34
2019-02-24T00:52:11.700Z,93.61
2019-02-24T00:54:45.593Z,93.67
2019-02-24T00:57:16.874Z,93.67
2019-02-24T00:59:48.461Z,93.97
2019-02-24T01:02:20.903Z,94.43
2019-02-24T01:04:54.404Z,94.92
2019-02-24T01:07:28.411Z,95.64
2019-02-24T01:10:02.061Z,95.85
2019-02-24T01:12:35.887Z,95.82
2019-02-24T01:15:08.965Z,95.70
2019-02-24T01:17:40.823Z,95.74
2019-02-24T01:20:14.664Z,95.72
2019-02-24T01:22:49.956Z,95.66
2019-02-24T01:25:23.457Z,95.57
2019-02-24T01:27:57.485Z,95.33
2019-02-24T01:30:31.459Z,95.27
2019-02-24T01:33:04.176Z,95.23
2019-02-24T01:35:38.271Z,95.13
2019-02-24T01:38:12.092Z,95.07
2019-02-24T01:40:45.911Z,94.94
2019-02-24T01:43:19.810Z,94.65
2019-02-24T01:45:51.070Z,95.06
2019-02-24T01:48:24.558Z,95.53
2019-02-24T01:50:58.469Z,95.58
2019-02-24T01:53:32.574Z,95.51
2019-02-24T01:56:06.279Z,95.27
2019-02-24T01:58:38.242Z,95.07
2019-02-24T02:01:10.253Z,94.72
2019-02-24T02:03:41.619Z,94.47
2019-02-24T02:06:12.880Z,94.30
2019-02-24T02:08:46.986Z,94.13
2019-02-24T02:11:20.826Z,93.99
2019-02-24T02:13:52.701Z,93.90
2019-02-24T02:16:25.560Z,93.82
2019-02-24T02:18:57.539Z,93.36
2019-02-24T02:21:30.630Z,93.33
2019-02-24T02:24:04.235Z,93.37
2019-02-24T02:26:38.232Z,93.41
2019-02-24T02:29:11.207Z,93.38
2019-02-24T02:31:45.117Z,93.19
2019-02-24T02:34:18.946Z,93.04
2019-02-24T02:36:50.371Z,93.08
2019-02-24T02:39:21.662Z,93.14
2019-02-24T02:41:54.526Z,93.13
2019-02-24T02:44:28.561Z,93.10
2019-02-24T02:47:02.426Z,93.14
2019-02-24T02:49:37.354Z,93.29
2019-02-24T02:52:09.550Z,93.55
2019-02-24T02:54:44.112Z,93.47
2019-02-24T02:57:18.165Z,93.31
2019-02-24T02:59:51.149Z,93.32
2019-02-24T03:02:25.051Z,93.19
2019-02-24T03:04:57.841Z,93.02
2019-02-24T03:07:38.769Z,92.61
2019-02-24T03:10:11.603Z,92.78
2019-02-24T03:12:43.553Z,93.12
2019-02-24T03:15:15.539Z,92.93
2019-02-24T03:17:50.051Z,92.92
2019-02-24T03:20:22.226Z,93.23
2019-02-24T03:22:53.618Z,93.36
2019-02-24T03:25:27.066Z,93.35
2019-02-24T03:28:01.013Z,93.12
2019-02-24T03:30:34.923Z,93.40
2019-02-24T03:33:10.510Z,93.40
2019-02-24T03:35:42.739Z,93.83
2019-02-24T03:38:13.986Z,94.09
2019-02-24T03:40:47.585Z,94.71
2019-02-24T03:43:21.528Z,94.84
2019-02-24T03:45:53.634Z,94.66
2019-02-24T03:48:26.468Z,94.84
2019-02-24T03:50:58.104Z,94.86
2019-02-24T03:53:31.008Z,95.11
2019-02-24T03:56:07.443Z,94.93
2019-02-24T03:58:38.695Z,94.79
2019-02-24T04:01:09.953Z,94.63
2019-02-24T04:03:43.795Z,94.50
2019-02-24T04:06:17.598Z,94.39
2019-02-24T04:08:48.872Z,94.45
2019-02-24T04:11:20.329Z,94.65
2019-02-24T04:13:52.385Z,94.89
2019-02-24T04:16:24.334Z,94.92
2019-02-24T04:18:59.541Z,95.17
2019-02-24T04:21:31.972Z,95.08
2019-02-24T04:24:03.272Z,95.04
2019-02-24T04:26:34.935Z,94.84
2019-02-24T04:29:06.909Z,94.61
2019-02-24T04:31:40.625Z,94.48
2019-02-24T04:34:16.351Z,94.32
2019-02-24T04:36:48.624Z,94.48
2019-02-24T04:39:19.868Z,94.54
2019-02-24T04:41:53.305Z,94.59
2019-02-24T04:44:27.263Z,94.75
2019-02-24T04:46:59.587Z,94.85
2019-02-24T04:49:31.975Z,94.97
2019-02-24T04:52:04.824Z,94.84
2019-02-24T04:54:36.785Z,94.76
2019-02-24T04:57:10.647Z,94.73
2019-02-24T04:59:41.921Z,94.68
2019-02-24T05:02:15.480Z,94.68
2019-02-24T05:04:48.635Z,94.52
2019-02-24T05:07:20.730Z,94.20
2019-02-24T05:09:52.181Z,93.86
2019-02-24T05:12:25.069Z,93.64
2019-02-24T05:14:57.000Z,93.75
2019-02-24T05:17:28.261Z,93.83
2019-02-24T05:20:00.927Z,94.00
2019-02-24T05:22:32.860Z,94.14
2019-02-24T05:25:05.551Z,94.56
2019-02-24T05:27:36.918Z,94.80
2019-02-24T05:30:10.519Z,94.60
2019-02-24T05:32:42.504Z,94.64
2019-02-24T05:35:14.345Z,94.65
2019-02-24T05:37:48.192Z,94.46
2019-02-24T05:40:22.071Z,94.44
2019-02-24T05:42:55.063Z,94.37
2019-02-24T05:45:27.061Z,94.41
2019-02-24T05:47:58.907Z,94.41
2019-02-24T05:50:31.853Z,94.53
2019-02-24T05:53:07.492Z,94.77
2019-02-24T05:55:39.594Z,95.00
2019-02-24T05:58:13.541Z,95.11
2019-02-24T06:00:45.348Z,95.01
2019-02-24T06:03:18.241Z,95.01
2019-02-24T06:05:49.486Z,94.94
2019-02-24T06:08:23.178Z,95.03
2019-02-24T06:10:57.037Z,94.90
2019-02-24T06:13:30.784Z,94.89
2019-02-24T06:16:03.438Z,94.78
2019-02-24T06:18:34.879Z,94.43
2019-02-24T06:21:07.886Z,94.06
2019-02-24T06:23:40.467Z,93.70
2019-02-24T06:26:11.726Z,92.78
2019-02-24T06:28:45.211Z,92.25
2019-02-24T06:31:19.371Z,91.69
2019-02-24T06:33:52.235Z,91.14
2019-02-24T06:36:25.672Z,91.02
2019-02-24T06:38:58.695Z,90.95
2019-02-24T06:41:32.624Z,90.95
2019-02-24T06:44:06.128Z,90.66
2019-02-24T06:46:39.988Z,90.27
2019-02-24T06:49:13.712Z,89.71
2019-02-24T06:51:46.952Z,88.69
2019-02-24T06:54:20.477Z,88.82
2019-02-24T06:56:51.983Z,89.63
2019-02-24T06:59:24.117Z,90.22
2019-02-24T07:01:57.711Z,90.50
2019-02-24T07:04:29.936Z,90.27
2019-02-24T07:07:03.952Z,89.95
2019-02-24T07:09:37.851Z,89.88
2019-02-24T07:12:09.675Z,89.78
2019-02-24T07:14:42.788Z,88.91
2019-02-24T07:17:16.509Z,88.60
2019-02-24T07:19:49.014Z,89.06
2019-02-24T07:22:21.439Z,88.57
2019-02-24T07:24:55.321Z,88.23
2019-02-24T07:27:29.372Z,89.01
2019-02-24T07:30:04.309Z,88.74
2019-02-24T07:32:37.074Z,87.93
2019-02-24T07:35:12.024Z,86.49
2019-02-24T07:37:45.884Z,85.10
2019-02-24T07:40:17.692Z,84.90
2019-02-24T07:42:49.257Z,85.02
2019-02-24T07:45:22.700Z,84.71
2019-02-24T07:47:54.048Z,84.47
2019-02-24T07:50:27.273Z,83.29
2019-02-24T07:53:01.311Z,82.28
2019-02-24T07:55:35.350Z,82.45
2019-02-24T07:58:10.733Z,82.02
2019-02-24T08:00:44.616Z,81.99
2019-02-24T08:03:19.785Z,81.96
2019-02-24T08:05:52.798Z,81.60
2019-02-24T08:08:24.703Z,80.40
2019-02-24T08:10:58.615Z,81.06
2019-02-24T08:13:31.011Z,79.90
2019-02-24T08:16:03.300Z,75.62
2019-02-24T08:18:37.298Z,72.62
2019-02-24T08:21:10.410Z,72.48
2019-02-24T08:23:44.392Z,73.28
2019-02-24T08:26:18.245Z,74.59
2019-02-24T08:28:49.590Z,74.03
2019-02-24T08:31:21.838Z,72.55
2019-02-24T08:33:53.594Z,72.78
2019-02-24T08:36:24.957Z,72.24
2019-02-24T08:38:58.698Z,71.94
2019-02-24T08:41:32.620Z,70.96
2019-02-24T08:44:04.598Z,69.74
2019-02-24T08:46:36.773Z,69.88
2019-02-24T08:49:09.366Z,70.72
2019-02-24T08:51:43.277Z,70.85
2019-02-24T08:54:17.183Z,71.06
2019-02-24T08:56:49.236Z,70.64
2019-02-24T08:59:20.984Z,70.95
2019-02-24T09:01:53.639Z,70.21
2019-02-24T09:04:25.109Z,70.35
2019-02-24T09:06:58.591Z,68.69
2019-02-24T09:09:30.579Z,67.58
2019-02-24T09:12:04.506Z,69.19
2019-02-24T09:14:37.605Z,68.52
2019-02-24T09:17:11.241Z,68.61
2019-02-24T09:19:46.751Z,70.19
2019-02-24T09:22:18.314Z,67.67
2019-02-24T09:24:49.661Z,67.36
2019-02-24T09:27:20.903Z,67.97
2019-02-24T09:29:52.835Z,66.07
2019-02-24T09:32:26.652Z,66.29
2019-02-24T09:35:02.140Z,65.81
2019-02-24T09:37:33.864Z,66.26
2019-02-24T09:40:07.444Z,67.67
2019-02-24T09:42:41.362Z,68.21
2019-02-24T09:45:13.989Z,66.19
2019-02-24T09:47:47.062Z,66.62
2019-02-24T09:50:20.116Z,65.37
2019-02-24T09:52:51.957Z,64.37
2019-02-24T09:55:25.796Z,66.38
2019-02-24T09:57:57.313Z,67.05
2019-02-24T10:00:28.604Z,66.04
2019-02-24T10:03:03.197Z,63.82
2019-02-24T10:05:38.982Z,63.54
2019-02-24T10:08:11.315Z,65.25
2019-02-24T10:10:43.296Z,64.23
2019-02-24T10:13:16.835Z,63.91
2019-02-24T10:15:49.254Z,62.42
2019-02-24T10:18:21.425Z,62.94
2019-02-24T10:20:53.243Z,62.10
2019-02-24T10:23:24.529Z,61.78
2019-02-24T10:25:55.943Z,62.28
2019-02-24T10:28:28.482Z,60.83
2019-02-24T10:31:01.568Z,62.00
2019-02-24T10:33:34.326Z,62.74
2019-02-24T10:36:05.884Z,60.60
2019-02-24T10:38:37.561Z,60.84
2019-02-24T10:41:09.520Z,59.96
2019-02-24T10:43:40.787Z,56.50
2019-02-24T10:46:12.120Z,57.62
2019-02-24T10:48:43.440Z,58.14
2019-02-24T10:51:14.785Z,57.57
2019-02-24T10:53:46.464Z,56.16
2019-02-24T10:56:18.487Z,55.15
2019-02-24T10:58:49.919Z,54.84
2019-02-24T11:01:29.214Z,54.78
2019-02-24T11:03:54.350Z,56.35
2019-02-24T11:06:26.798Z,54.95
2019-02-24T11:09:03.685Z,54.17
2019-02-24T11:11:36.347Z,53.10
2019-02-24T11:14:08.062Z,54.43
2019-02-24T11:16:40.062Z,54.12
2019-02-24T11:19:12.377Z,53.99
2019-02-24T11:21:43.969Z,54.66
2019-02-24T11:24:15.234Z,53.71
2019-02-24T11:26:47.081Z,52.25
2019-02-24T11:29:18.700Z,53.17
2019-02-24T11:31:51.114Z,51.30
2019-02-24T11:34:23.079Z,51.13
2019-02-24T11:36:56.624Z,51.58
2019-02-24T11:39:28.162Z,51.96
2019-02-24T11:42:00.172Z,53.82
2019-02-24T11:44:31.466Z,53.26
2019-02-24T11:47:03.071Z,51.96
2019-02-24T11:49:34.517Z,52.41
2019-02-24T11:52:06.006Z,53.67
2019-02-24T11:54:37.315Z,53.20
2019-02-24T11:57:08.656Z,53.58
2019-02-24T11:59:40.052Z,54.49
2019-02-24T12:02:12.000Z,53.04
2019-02-24T12:04:43.286Z,52.38
2019-02-24T12:07:15.011Z,51.75
2019-02-24T12:09:46.936Z,52.69
2019-02-24T12:12:18.182Z,53.11
2019-02-24T12:14:49.970Z,53.15
2019-02-24T12:17:21.290Z,53.35
2019-02-24T12:19:53.030Z,53.82
2019-02-24T12:22:24.385Z,54.47
2019-02-24T12:24:55.999Z,54.11
2019-02-24T12:27:28.049Z,54.53
2019-02-24T12:30:00.412Z,55.42
2019-02-24T12:32:31.656Z,54.99
2019-02-24T12:35:03.262Z,54.88
2019-02-24T12:37:35.204Z,54.50
2019-02-24T12:40:08.011Z,52.69
2019-02-24T12:42:41.027Z,52.34
2019-02-24T12:45:12.380Z,52.05
2019-02-24T12:47:44.043Z,51.08
2019-02-24T12:50:16.157Z,52.47
2019-02-24T12:52:47.764Z,51.21
2019-02-24T12:55:19.031Z,51.56
2019-02-24T12:57:51.042Z,51.55
2019-02-24T13:00:22.411Z,52.32
2019-02-24T13:02:54.030Z,51.88
2019-02-24T13:05:29.315Z,52.22
2019-02-24T13:08:01.340Z,50.57
2019-02-24T13:10:32.992Z,51.26
2019-02-24T13:13:04.266Z,50.92
2019-02-24T13:15:36.081Z,50.73
2019-02-24T13:18:08.191Z,51.01
2019-02-24T13:20:39.993Z,53.06
2019-02-24T13:23:11.518Z,53.60
2019-02-24T13:25:42.998Z,52.66
2019-02-24T13:28:14.630Z,50.42
2019-02-24T13:30:46.004Z,50.10
2019-02-24T13:33:17.244Z,48.68
2019-02-24T13:35:49.152Z,48.68
2019-02-24T13:38:20.412Z,52.20
2019-02-24T13:40:52.082Z,52.57
2019-02-24T13:43:23.951Z,52.48
2019-02-24T13:45:55.667Z,52.58
2019-02-24T13:48:27.057Z,51.80
2019-02-24T13:50:59.244Z,52.22
2019-02-24T13:53:30.991Z,52.04
2019-02-24T13:56:04.502Z,53.47
2019-02-24T13:58:36.389Z,53.94
2019-02-24T14:01:08.103Z,54.23
2019-02-24T14:03:40.224Z,52.74
2019-02-24T14:06:12.219Z,51.68
2019-02-24T14:08:43.782Z,51.81
2019-02-24T14:11:15.136Z,51.55
2019-02-24T14:13:47.112Z,50.82
2019-02-24T14:16:20.884Z,49.86
2019-02-24T14:18:52.602Z,48.64
2019-02-24T14:21:24.332Z,49.07
2019-02-24T14:23:56.034Z,52.31
2019-02-24T14:26:27.450Z,50.62
2019-02-24T14:28:59.036Z,51.66
2019-02-24T14:31:30.661Z,51.60
2019-02-24T14:34:02.456Z,52.18
2019-02-24T14:36:34.790Z,51.39
2019-02-24T14:39:10.063Z,50.43
2019-02-24T14:41:42.170Z,50.39
2019-02-24T14:44:14.198Z,50.45
2019-02-24T14:46:46.023Z,50.10
2019-02-24T14:49:17.625Z,50.91
2019-02-24T14:51:50.087Z,50.42
2019-02-24T14:54:21.497Z,49.31
2019-02-24T14:56:53.043Z,50.64
2019-02-24T14:59:24.498Z,49.74
2019-02-24T15:01:56.135Z,48.28
2019-02-24T15:04:28.337Z,48.45
2019-02-24T15:07:01.388Z,47.48
2019-02-24T15:09:33.145Z,46.93
2019-02-24T15:12:05.061Z,48.00
2019-02-24T15:14:37.155Z,47.28
2019-02-24T15:17:08.914Z,47.80
2019-02-24T15:19:40.161Z,48.37
2019-02-24T15:22:12.060Z,48.92
2019-02-24T15:24:44.413Z,51.19
2019-02-24T15:27:17.845Z,52.91
2019-02-24T15:29:49.095Z,52.73
2019-02-24T15:32:20.450Z,53.83
2019-02-24T15:34:52.085Z,53.18
2019-02-24T15:37:24.184Z,54.11
2019-02-24T15:39:56.268Z,53.73
2019-02-24T15:42:28.177Z,52.64
2019-02-24T15:45:00.226Z,52.46
2019-02-24T15:47:31.531Z,52.55
2019-02-24T15:50:03.352Z,53.03
2019-02-24T15:52:35.707Z,53.36
2019-02-24T15:55:09.093Z,53.61
2019-02-24T15:57:41.062Z,54.02
2019-02-24T16:00:14.664Z,53.18
2019-02-24T16:02:46.370Z,53.71
2019-02-24T16:05:18.601Z,53.72
2019-02-24T16:07:50.003Z,53.38
2019-02-24T16:10:22.005Z,54.03
2019-02-24T16:12:53.461Z,54.29
2019-02-24T16:15:24.867Z,54.55
2019-02-24T16:17:56.119Z,54.68
2019-02-24T16:20:28.083Z,54.88
2019-02-24T16:22:59.995Z,54.86
2019-02-24T16:25:31.320Z,55.39
2019-02-24T16:28:03.005Z,54.54
2019-02-24T16:30:34.526Z,54.36
2019-02-24T16:33:10.516Z,53.89
2019-02-24T16:35:39.188Z,55.60
2019-02-24T16:38:10.973Z,55.64
2019-02-24T16:40:42.231Z,55.64
2019-02-24T16:43:15.102Z,57.24
2019-02-24T16:45:47.228Z,57.52
2019-02-24T16:48:20.172Z,58.30
2019-02-24T16:50:52.104Z,58.74
2019-02-24T16:53:24.180Z,58.88
2019-02-24T16:55:56.108Z,59.42
2019-02-24T16:58:28.145Z,60.39
2019-02-24T17:01:00.176Z,60.89
2019-02-24T17:03:31.560Z,61.99
2019-02-24T17:06:03.089Z,62.79
2019-02-24T17:08:34.412Z,63.40
2019-02-24T17:11:07.582Z,64.02
2019-02-24T17:13:39.144Z,63.69
2019-02-24T17:16:11.038Z,63.79
2019-02-24T17:18:43.247Z,63.04
2019-02-24T17:21:14.586Z,63.30
2019-02-24T17:23:49.819Z,63.15
2019-02-24T17:26:19.353Z,63.54
2019-02-24T17:28:51.197Z,64.36
2019-02-24T17:31:28.360Z,63.90
2019-02-24T17:33:58.078Z,64.01
2019-02-24T17:36:31.896Z,63.55
2019-02-24T17:39:03.216Z,63.54
2019-02-24T17:41:35.215Z,63.82
2019-02-24T17:44:07.026Z,64.43
2019-02-24T17:46:39.947Z,64.45
2019-02-24T17:49:11.238Z,65.30
2019-02-24T17:51:43.076Z,66.19
2019-02-24T17:54:15.113Z,65.56
2019-02-24T17:56:47.043Z,65.44
2019-02-24T17:59:19.427Z,64.86
2019-02-24T18:01:51.061Z,65.06
2019-02-24T18:04:23.054Z,65.18
2019-02-24T18:06:55.117Z,64.29
2019-02-24T18:09:27.144Z,64.03
2019-02-24T18:11:59.040Z,64.13
2019-02-24T18:14:31.118Z,63.49
2019-02-24T18:17:03.082Z,63.50
2019-02-24T18:19:35.157Z,64.39
2019-02-24T18:22:07.218Z,64.25
2019-02-24T18:24:39.097Z,63.21
2019-02-24T18:27:12.594Z,63.37
2019-02-24T18:29:44.214Z,64.08
2019-02-24T18:32:16.189Z,64.17
2019-02-24T18:34:48.134Z,64.31
2019-02-24T18:37:20.176Z,64.27
2019-02-24T18:39:52.067Z,64.31
2019-02-24T18:42:24.092Z,65.05
2019-02-24T18:44:57.808Z,64.54
2019-02-24T18:47:29.068Z,64.31
2019-02-24T18:50:01.516Z,64.08
2019-02-24T18:52:32.985Z,64.51
2019-02-24T18:55:06.762Z,64.97
2019-02-24T18:57:38.221Z,65.31
2019-02-24T19:00:12.797Z,65.42
2019-02-24T19:02:44.374Z,64.84
2019-02-24T19:05:15.999Z,65.43
2019-02-24T19:07:47.572Z,65.27
2019-02-24T19:10:21.108Z,64.85
2019-02-24T19:12:52.134Z,64.82
2019-02-24T19:15:24.417Z,65.09
2019-02-24T19:17:56.130Z,65.03
2019-02-24T19:20:28.130Z,64.93
2019-02-24T19:23:00.175Z,65.03
2019-02-24T19:25:31.530Z,65.27
2019-02-24T19:28:03.090Z,65.16
2019-02-24T19:30:35.132Z,64.36
2019-02-24T19:33:09.127Z,63.54
2019-02-24T19:35:41.414Z,63.22
2019-02-24T19:38:13.093Z,62.60
2019-02-24T19:40:45.190Z,62.65
2019-02-24T19:43:17.074Z,62.97
2019-02-24T19:45:48.451Z,62.97
2019-02-24T19:48:20.150Z,62.88
2019-02-24T19:50:52.059Z,62.87
2019-02-24T19:53:24.111Z,62.74
2019-02-24T19:55:56.077Z,62.84
2019-02-24T19:58:28.165Z,62.81
2019-02-24T20:00:59.558Z,63.10
2019-02-24T20:03:31.070Z,63.00
2019-02-24T20:06:03.106Z,63.25
2019-02-24T20:08:35.058Z,63.32
2019-02-24T20:11:07.377Z,62.99
2019-02-24T20:13:39.082Z,62.84
2019-02-24T20:16:11.049Z,62.74
2019-02-24T20:18:43.193Z,63.03
2019-02-24T20:21:15.060Z,62.39
2019-02-24T20:23:47.081Z,62.56
2019-02-24T20:26:19.201Z,62.36
2019-02-24T20:28:50.502Z,62.11
2019-02-24T20:31:22.009Z,61.96
2019-02-24T20:33:53.366Z,62.88
2019-02-24T20:36:24.779Z,62.87
2019-02-24T20:38:56.094Z,61.97
2019-02-24T20:41:28.192Z,61.31
2019-02-24T20:44:00.071Z,61.04
2019-02-24T20:46:31.378Z,61.86
2019-02-24T20:49:03.190Z,61.04
2019-02-24T20:51:35.116Z,60.81
2019-02-24T20:54:08.802Z,60.53
2019-02-24T20:56:40.106Z,60.96
2019-02-24T20:59:12.123Z,61.02
2019-02-24T21:01:45.108Z,62.13
2019-02-24T21:04:17.149Z,62.29
2019-02-24T21:06:49.066Z,61.71
2019-02-24T21:09:21.004Z,60.94
2019-02-24T21:11:52.359Z,61.28
2019-02-24T21:14:24.056Z,61.36
2019-02-24T21:16:55.305Z,61.28
2019-02-24T21:19:27.006Z,60.91
2019-02-24T21:21:58.437Z,60.91
2019-02-24T21:24:29.991Z,60.43
2019-02-24T21:27:01.257Z,60.92
2019-02-24T21:29:34.251Z,61.29
2019-02-24T21:32:05.581Z,61.66
2019-02-24T21:34:37.106Z,61.73
2019-02-24T21:37:08.501Z,62.20
2019-02-24T21:39:40.002Z,62.48
2019-02-24T21:42:11.259Z,63.00
2019-02-24T21:44:43.053Z,63.51
2019-02-24T21:47:15.040Z,63.35
2019-02-24T21:49:47.074Z,63.05
2019-02-24T21:52:19.060Z,62.63
2019-02-24T21:54:50.312Z,63.01
2019-02-24T21:57:22.011Z,63.03
2019-02-24T21:59:55.756Z,62.55
2019-02-24T22:02:27.034Z,62.27
2019-02-24T22:04:58.301Z,62.90
2019-02-24T22:07:29.986Z,62.96
2019-02-24T22:10:01.268Z,63.15
2019-02-24T22:12:33.573Z,62.86
2019-02-24T22:15:05.626Z,62.77
2019-02-24T22:17:36.989Z,63.20
2019-02-24T22:20:09.421Z,63.13
2019-02-24T22:22:41.079Z,62.78
2019-02-24T22:25:13.670Z,62.51
2019-02-24T22:27:45.201Z,62.82
2019-02-24T22:30:17.331Z,63.47
2019-02-24T22:32:49.067Z,63.01
2019-02-24T22:35:20.593Z,62.87
2019-02-24T22:37:52.183Z,62.74
2019-02-24T22:40:23.567Z,62.57
2019-02-24T22:42:55.066Z,62.44
2019-02-24T22:45:27.085Z,63.09
2019-02-24T22:47:59.096Z,63.37
2019-02-24T22:50:31.015Z,63.22
2019-02-24T22:53:02.342Z,63.03
2019-02-24T22:55:33.984Z,62.51
2019-02-24T22:58:05.265Z,62.61
2019-02-24T23:00:57.568Z,63.37
2019-02-24T23:03:40.281Z,63.93
2019-02-24T23:06:12.018Z,62.93
2019-02-24T23:08:43.339Z,62.61
2019-02-24T23:11:15.177Z,62.65
2019-02-24T23:13:47.108Z,63.01
2019-02-24T23:16:20.615Z,62.88
2019-02-24T23:18:52.079Z,63.09
2019-02-24T23:21:24.083Z,62.82
2019-02-24T23:23:56.431Z,62.78
2019-02-24T23:26:27.965Z,63.00
2019-02-24T23:28:59.239Z,62.67
2019-02-24T23:31:31.020Z,62.83
2019-02-24T23:34:03.090Z,63.34
2019-02-24T23:36:35.033Z,62.31
2019-02-24T23:39:10.408Z,61.46
2019-02-24T23:41:42.043Z,61.12
2019-02-24T23:44:13.373Z,61.20
2019-02-24T23:46:45.083Z,61.78
2019-02-24T23:49:18.726Z,61.82
2019-02-24T23:51:49.989Z,61.88
2019-02-24T23:54:21.271Z,61.86
2019-02-24T23:56:52.991Z,62.17
2019-02-24T23:59:24.254Z,62.30
